createdAt,value
2018-09-22T00:00:24.885Z,100063.44
2018-09-22T00:03:29.298Z,100056.48
2018-09-22T00:06:33.694Z,100054.95
2018-09-22T00:09:38.436Z,100057.97
2018-09-22T00:12:42.895Z,100063.47
2018-09-22T00:15:47.362Z,100068.92
2018-09-22T00:18:51.782Z,100073.27
2018-09-22T00:21:56.356Z,100073.91
2018-09-22T00:25:00.754Z,100087.34
2018-09-22T00:28:05.217Z,100082.18
2018-09-22T00:31:09.679Z,100094.16
2018-09-22T00:34:14.117Z,100096.91
2018-09-22T00:37:18.637Z,100096.26
2018-09-22T00:40:23.240Z,100103.44
2018-09-22T00:43:27.651Z,100094.61
2018-09-22T00:46:32.113Z,100096.45
2018-09-22T00:49:36.803Z,100094.16
2018-09-22T00:52:41.196Z,100100.04
2018-09-22T00:55:45.669Z,100100.48
2018-09-22T00:58:50.243Z,100104.09
2018-09-22T01:01:54.687Z,100104.47
2018-09-22T01:04:59.152Z,100114.17
2018-09-22T01:08:03.605Z,100117.89
2018-09-22T01:11:08.239Z,100121.63
2018-09-22T01:14:12.727Z,100129.45
2018-09-22T01:17:17.203Z,100135.30
2018-09-22T01:20:21.787Z,100142.42
2018-09-22T01:23:26.381Z,100140.39
2018-09-22T01:26:30.829Z,100139.19
2018-09-22T01:29:35.317Z,100138.30
2018-09-22T01:32:39.763Z,100135.23
2018-09-22T01:35:44.253Z,100135.81
2018-09-22T01:38:48.703Z,100150.20
2018-09-22T01:41:53.179Z,100153.43
2018-09-22T01:44:57.617Z,100153.12
2018-09-22T01:48:02.095Z,100158.45
2018-09-22T01:51:06.552Z,100154.46
2018-09-22T01:54:10.954Z,100157.48
2018-09-22T01:57:15.369Z,100162.23
2018-09-22T02:00:19.863Z,100162.75
2018-09-22T02:03:24.384Z,100161.72
2018-09-22T02:06:28.928Z,100157.79
2018-09-22T02:09:33.346Z,100160.81
2018-09-22T02:12:37.916Z,100170.30
2018-09-22T02:15:42.462Z,100163.58
2018-09-22T02:18:46.898Z,100165.57
2018-09-22T02:21:51.358Z,100175.47
2018-09-22T02:24:55.980Z,100167.97
2018-09-22T02:28:00.467Z,100179.95
2018-09-22T02:31:04.922Z,100172.73
2018-09-22T02:34:09.438Z,100167.33
2018-09-22T02:37:13.879Z,100170.28
2018-09-22T02:40:18.335Z,100181.57
2018-09-22T02:43:22.866Z,100177.28
2018-09-22T02:46:27.343Z,100178.48
2018-09-22T02:49:31.793Z,100182.37
2018-09-22T02:52:36.279Z,100176.63
2018-09-22T02:55:40.717Z,100174.21
2018-09-22T02:58:45.211Z,100171.05
2018-09-22T03:01:49.657Z,100176.86
2018-09-22T03:04:54.075Z,100182.02
2018-09-22T03:07:58.493Z,100186.30
2018-09-22T03:11:02.949Z,100188.92
2018-09-22T03:14:07.667Z,100201.22
2018-09-22T03:17:12.114Z,100192.41
2018-09-22T03:20:16.583Z,100190.73
2018-09-22T03:23:21.437Z,100196.75
2018-09-22T03:26:25.935Z,100206.45
2018-09-22T03:29:30.405Z,100211.21
2018-09-22T03:32:34.825Z,100212.41
2018-09-22T03:35:39.205Z,100221.34
2018-09-22T03:38:43.627Z,100219.34
2018-09-22T03:41:48.101Z,100210.09
2018-09-22T03:44:52.582Z,100214.58
2018-09-22T03:47:57.035Z,100209.75
2018-09-22T03:51:01.488Z,100204.32
2018-09-22T03:54:06.049Z,100209.20
2018-09-22T03:57:10.430Z,100210.95
2018-09-22T04:00:14.869Z,100211.53
2018-09-22T04:03:19.440Z,100206.83
2018-09-22T04:06:23.872Z,100214.43
2018-09-22T04:09:28.321Z,100213.92
2018-09-22T04:12:32.723Z,100209.06
2018-09-22T04:15:37.188Z,100213.67
2018-09-22T04:18:41.644Z,100229.76
2018-09-22T04:21:46.162Z,100241.14
2018-09-22T04:24:50.643Z,100239.44
2018-09-22T04:27:55.024Z,100243.09
2018-09-22T04:30:59.575Z,100249.73
2018-09-22T04:34:03.995Z,100249.08
2018-09-22T04:37:08.470Z,100253.32
2018-09-22T04:40:12.912Z,100258.62
2018-09-22T04:43:17.361Z,100269.92
2018-09-22T04:46:21.812Z,100272.09
2018-09-22T04:49:26.364Z,100270.64
2018-09-22T04:52:30.815Z,100267.39
2018-09-22T04:55:35.455Z,100258.58
2018-09-22T04:58:40.020Z,100260.25
2018-09-22T05:01:44.439Z,100258.52
2018-09-22T05:04:49.070Z,100261.67
2018-09-22T05:07:53.705Z,100268.64
2018-09-22T05:10:58.204Z,100267.74
2018-09-22T05:14:02.702Z,100283.55
2018-09-22T05:17:07.320Z,100290.31
2018-09-22T05:20:11.707Z,100286.89
2018-09-22T05:23:16.173Z,100297.56
2018-09-22T05:26:20.611Z,100307.93
2018-09-22T05:29:25.026Z,100315.96
2018-09-22T05:32:29.442Z,100305.20
2018-09-22T05:35:33.931Z,100308.22
2018-09-22T05:38:38.534Z,100314.95
2018-09-22T05:41:43.010Z,100313.49
2018-09-22T05:44:47.425Z,100321.59
2018-09-22T05:47:51.868Z,100328.62
2018-09-22T05:50:56.318Z,100339.72
2018-09-22T05:54:00.738Z,100342.16
2018-09-22T05:57:05.237Z,100340.78
2018-09-22T06:00:09.809Z,100345.74
2018-09-22T06:03:14.307Z,100352.36
2018-09-22T06:06:18.820Z,100352.08
2018-09-22T06:09:23.261Z,100350.39
2018-09-22T06:12:27.674Z,100343.98
2018-09-22T06:15:32.108Z,100354.85
2018-09-22T06:18:36.664Z,100356.95
2018-09-22T06:21:41.129Z,100363.41
2018-09-22T06:24:45.664Z,100357.80
2018-09-22T06:27:50.233Z,100354.20
2018-09-22T06:30:54.722Z,100356.89
2018-09-22T06:33:59.269Z,100366.03
2018-09-22T06:37:03.741Z,100369.37
2018-09-22T06:40:08.182Z,100383.39
2018-09-22T06:43:12.678Z,100395.42
2018-09-22T06:46:17.197Z,100375.83
2018-09-22T06:49:21.591Z,100369.64
2018-09-22T06:52:26.182Z,100379.88
2018-09-22T06:55:30.643Z,100385.70
2018-09-22T06:58:35.256Z,100378.68
2018-09-22T07:01:39.708Z,100372.42
2018-09-22T07:04:45.039Z,100375.27
2018-09-22T07:07:49.560Z,100386.48
2018-09-22T07:10:54.169Z,100379.77
2018-09-22T07:13:58.640Z,100385.41
2018-09-22T07:17:03.757Z,100377.50
2018-09-22T07:20:08.230Z,100386.58
2018-09-22T07:23:14.175Z,100386.86
2018-09-22T07:26:18.627Z,100388.57
2018-09-22T07:29:23.406Z,100376.55
2018-09-22T07:32:27.823Z,100371.88
2018-09-22T07:35:32.323Z,100374.67
2018-09-22T07:38:36.884Z,100363.10
2018-09-22T07:41:41.449Z,100353.05
2018-09-22T07:44:46.141Z,100358.16
2018-09-22T07:47:50.578Z,100356.06
2018-09-22T07:50:55.077Z,100355.09
2018-09-22T07:53:59.561Z,100356.03
2018-09-22T07:57:04.034Z,100355.51
2018-09-22T08:00:08.638Z,100363.98
2018-09-22T08:03:13.203Z,100363.08
2018-09-22T08:06:17.772Z,100371.55
2018-09-22T08:09:22.304Z,100382.11
2018-09-22T08:12:26.792Z,100367.31
2018-09-22T08:15:31.331Z,100370.25
2018-09-22T08:18:35.967Z,100360.07
2018-09-22T08:21:40.562Z,100369.63
2018-09-22T08:24:45.114Z,100377.84
2018-09-22T08:27:49.548Z,100388.77
2018-09-22T08:30:54.297Z,100384.98
2018-09-22T08:33:58.832Z,100385.78
2018-09-22T08:37:03.446Z,100394.62
2018-09-22T08:40:07.839Z,100392.20
2018-09-22T08:43:12.289Z,100399.04
2018-09-22T08:46:16.711Z,100396.61
2018-09-22T08:49:21.144Z,100398.30
2018-09-22T08:52:25.555Z,100405.90
2018-09-22T08:55:31.095Z,100385.14
2018-09-22T08:58:35.536Z,100371.64
2018-09-22T09:01:39.996Z,100376.85
2018-09-22T09:04:44.475Z,100371.55
2018-09-22T09:07:48.952Z,100366.08
2018-09-22T09:10:53.409Z,100351.52
2018-09-22T09:13:57.929Z,100349.21
2018-09-22T09:17:02.490Z,100354.30
2018-09-22T09:20:06.994Z,100372.48
2018-09-22T09:23:11.459Z,100373.85
2018-09-22T09:26:15.969Z,100376.67
2018-09-22T09:29:20.446Z,100374.93
2018-09-22T09:32:24.890Z,100373.95
2018-09-22T09:35:29.457Z,100366.44
2018-09-22T09:38:34.979Z,100365.56
2018-09-22T09:41:39.451Z,100361.34
2018-09-22T09:44:43.892Z,100344.80
2018-09-22T09:47:48.381Z,100330.47
2018-09-22T09:50:52.889Z,100317.70
2018-09-22T09:53:57.338Z,100307.16
2018-09-22T09:57:01.807Z,100306.59
2018-09-22T10:00:06.768Z,100304.39
2018-09-22T10:03:11.236Z,100313.44
2018-09-22T10:06:15.816Z,100304.36
2018-09-22T10:09:20.254Z,100315.06
2018-09-22T10:12:24.711Z,100313.37
2018-09-22T10:15:29.157Z,100313.25
2018-09-22T10:18:33.704Z,100302.60
2018-09-22T10:21:38.154Z,100310.88
2018-09-22T10:24:42.607Z,100317.93
2018-09-22T10:27:47.079Z,100314.23
2018-09-22T10:30:51.521Z,100301.29
2018-09-22T10:33:55.999Z,100311.97
2018-09-22T10:37:00.429Z,100313.70
2018-09-22T10:40:04.945Z,100294.41
2018-09-22T10:43:09.593Z,100305.72
2018-09-22T10:46:14.159Z,100301.55
2018-09-22T10:49:18.702Z,100307.02
2018-09-22T10:52:23.202Z,100310.09
2018-09-22T10:55:27.651Z,100300.63
2018-09-22T10:58:32.114Z,100300.23
2018-09-22T11:01:36.570Z,100284.33
2018-09-22T11:04:41.090Z,100287.19
2018-09-22T11:07:45.550Z,100278.09
2018-09-22T11:10:49.998Z,100264.89
2018-09-22T11:13:54.540Z,100255.98
2018-09-22T11:16:59.029Z,100249.31
2018-09-22T11:20:03.525Z,100250.39
2018-09-22T11:23:07.959Z,100254.06
2018-09-22T11:26:12.419Z,100260.03
2018-09-22T11:29:16.894Z,100265.73
2018-09-22T11:32:21.356Z,100246.23
2018-09-22T11:35:25.813Z,100246.47
2018-09-22T11:38:30.285Z,100249.97
2018-09-22T11:41:34.796Z,100251.23
2018-09-22T11:44:39.359Z,100251.51
2018-09-22T11:47:43.963Z,100248.75
2018-09-22T11:50:48.541Z,100239.38
2018-09-22T11:53:53.201Z,100229.41
2018-09-22T11:56:57.801Z,100221.09
2018-09-22T12:00:02.365Z,100224.53
2018-09-22T12:03:06.843Z,100222.50
2018-09-22T12:06:11.473Z,100209.23
2018-09-22T12:09:16.078Z,100195.80
2018-09-22T12:12:20.827Z,100193.61
2018-09-22T12:15:25.400Z,100200.72
2018-09-22T12:18:29.959Z,100203.77
2018-09-22T12:21:34.609Z,100211.39
2018-09-22T12:24:39.338Z,100203.43
2018-09-22T12:27:44.064Z,100176.70
2018-09-22T12:30:48.575Z,100174.50
2018-09-22T12:33:53.433Z,100160.78
2018-09-22T12:36:58.049Z,100173.44
2018-09-22T12:40:02.565Z,100161.92
2018-09-22T12:43:07.542Z,100177.95
2018-09-22T12:46:12.213Z,100176.20
2018-09-22T12:49:16.778Z,100150.59
2018-09-22T12:52:21.304Z,100157.02
2018-09-22T12:55:25.851Z,100143.52
2018-09-22T12:58:30.448Z,100136.70
2018-09-22T13:01:34.991Z,100131.48
2018-09-22T13:04:39.611Z,100136.09
2018-09-22T13:07:44.134Z,100135.92
2018-09-22T13:10:48.673Z,100132.53
2018-09-22T13:13:53.344Z,100138.42
2018-09-22T13:16:57.800Z,100147.56
2018-09-22T13:20:02.395Z,100148.94
2018-09-22T13:23:07.258Z,100149.70
2018-09-22T13:26:11.690Z,100142.16
2018-09-22T13:29:16.147Z,100150.93
2018-09-22T13:32:20.711Z,100160.16
2018-09-22T13:35:25.209Z,100158.34
2018-09-22T13:38:29.966Z,100161.38
2018-09-22T13:41:34.477Z,100163.68
2018-09-22T13:44:38.973Z,100170.13
2018-09-22T13:47:43.399Z,100161.59
2018-09-22T13:50:47.923Z,100161.76
2018-09-22T13:53:52.342Z,100154.25
2018-09-22T13:56:56.804Z,100141.66
2018-09-22T14:00:01.274Z,100147.28
2018-09-22T14:03:05.920Z,100141.00
2018-09-22T14:06:10.466Z,100138.91
2018-09-22T14:09:14.916Z,100130.27
2018-09-22T14:12:19.587Z,100122.22
2018-09-22T14:15:24.004Z,100126.41
2018-09-22T14:18:28.512Z,100106.84
2018-09-22T14:21:33.277Z,100106.53
2018-09-22T14:24:37.810Z,100126.89
2018-09-22T14:27:42.231Z,100124.80
2018-09-22T14:30:46.966Z,100118.94
2018-09-22T14:33:51.479Z,100117.91
2018-09-22T14:36:56.067Z,100101.58
2018-09-22T14:40:00.507Z,100094.03
2018-09-22T14:43:04.928Z,100090.73
2018-09-22T14:46:09.383Z,100086.84
2018-09-22T14:49:13.844Z,100091.67
2018-09-22T14:52:18.325Z,100084.22
2018-09-22T14:55:22.827Z,100077.22
2018-09-22T14:58:28.243Z,100075.73
2018-09-22T15:01:32.715Z,100077.95
2018-09-22T15:04:37.221Z,100085.59
2018-09-22T15:07:41.887Z,100078.17
2018-09-22T15:10:46.385Z,100080.92
2018-09-22T15:13:50.850Z,100085.72
2018-09-22T15:16:55.364Z,100090.97
2018-09-22T15:19:59.790Z,100090.55
2018-09-22T15:23:04.287Z,100073.38
2018-09-22T15:26:08.800Z,100078.96
2018-09-22T15:29:13.322Z,100080.84
2018-09-22T15:32:17.791Z,100090.72
2018-09-22T15:35:22.251Z,100100.92
2018-09-22T15:38:26.721Z,100079.36
2018-09-22T15:41:31.398Z,100051.97
2018-09-22T15:44:35.921Z,100032.53
2018-09-22T15:47:40.384Z,100022.74
2018-09-22T15:50:45.830Z,100008.48
2018-09-22T15:53:50.341Z,100010.52
2018-09-22T15:56:54.761Z,100015.70
2018-09-22T15:59:59.211Z,100006.64
2018-09-22T16:03:03.733Z,99993.95
2018-09-22T16:06:08.211Z,100009.39
2018-09-22T16:09:12.647Z,100001.73
2018-09-22T16:12:18.291Z,99995.48
2018-09-22T16:15:22.752Z,100004.39
2018-09-22T16:18:27.385Z,100006.95
2018-09-22T16:21:32.181Z,100003.45
2018-09-22T16:24:36.634Z,100008.97
2018-09-22T16:27:41.169Z,100008.97
2018-09-22T16:30:45.650Z,100016.79
2018-09-22T16:33:50.387Z,100003.28
2018-09-22T16:36:54.808Z,100006.77
2018-09-22T16:39:59.384Z,100012.19
2018-09-22T16:43:03.982Z,100025.33
2018-09-22T16:46:08.679Z,100041.09
2018-09-22T16:49:13.207Z,100040.63
2018-09-22T16:52:17.661Z,100032.97
2018-09-22T16:55:22.140Z,100046.52
2018-09-22T16:58:26.682Z,100049.19
2018-09-22T17:01:31.148Z,100055.14
2018-09-22T17:04:35.608Z,100062.23
2018-09-22T17:07:40.063Z,100067.82
2018-09-22T17:10:44.508Z,100063.75
2018-09-22T17:13:48.986Z,100078.92
2018-09-22T17:16:53.575Z,100081.36
2018-09-22T17:19:58.036Z,100083.57
2018-09-22T17:23:02.476Z,100083.29
2018-09-22T17:26:06.997Z,100093.81
2018-09-22T17:29:11.531Z,100092.97
2018-09-22T17:32:16.143Z,100099.73
2018-09-22T17:35:20.601Z,100104.27
2018-09-22T17:38:25.119Z,100113.73
2018-09-22T17:41:29.544Z,100106.51
2018-09-22T17:44:34.016Z,100099.75
2018-09-22T17:47:38.472Z,100097.10
2018-09-22T17:50:42.910Z,100102.21
2018-09-22T17:53:47.471Z,100097.27
2018-09-22T17:56:51.979Z,100090.61
2018-09-22T17:59:56.487Z,100092.11
2018-09-22T18:03:01.029Z,100096.21
2018-09-22T18:06:05.774Z,100099.58
2018-09-22T18:09:10.532Z,100092.94
2018-09-22T18:12:15.087Z,100090.41
2018-09-22T18:15:19.652Z,100092.11
2018-09-22T18:18:24.172Z,100085.56
2018-09-22T18:21:29.225Z,100092.08
2018-09-22T18:24:33.812Z,100098.56
2018-09-22T18:27:38.371Z,100109.18
2018-09-22T18:30:42.877Z,100104.34
2018-09-22T18:33:47.558Z,100097.58
2018-09-22T18:36:52.028Z,100105.37
2018-09-22T18:39:56.505Z,100103.61
2018-09-22T18:43:00.984Z,100104.09
2018-09-22T18:46:05.437Z,100102.86
2018-09-22T18:49:09.955Z,100106.88
2018-09-22T18:52:14.431Z,100103.08
2018-09-22T18:55:18.905Z,100115.77
2018-09-22T18:58:23.369Z,100114.06
2018-09-22T19:01:28.069Z,100111.02
2018-09-22T19:04:32.590Z,100101.09
2018-09-22T19:07:37.157Z,100109.58
2018-09-22T19:10:41.682Z,100105.97
2018-09-22T19:14:54.366Z,100120.90
2018-09-22T19:18:04.469Z,100102.05
2018-09-22T19:22:13.684Z,100110.80
2018-09-22T19:25:20.389Z,100114.24
2018-09-22T19:28:30.252Z,100122.80
2018-09-22T19:31:45.484Z,100136.32
2018-09-22T19:34:53.415Z,100154.34
2018-09-22T19:38:02.747Z,100141.03
2018-09-22T19:41:12.388Z,100115.36
2018-09-22T19:44:21.445Z,100117.23
2018-09-22T19:48:00.138Z,100113.16
2018-09-22T19:51:08.335Z,100114.24
2018-09-22T19:54:12.963Z,100116.42
2018-09-22T19:57:17.506Z,100118.10
2018-09-22T20:00:22.043Z,100094.06
2018-09-22T20:03:26.559Z,100093.32
2018-09-22T20:06:31.098Z,100087.91
2018-09-22T20:09:36.035Z,100098.29
2018-09-22T20:12:40.557Z,100108.31
2018-09-22T20:15:45.122Z,100090.00
2018-09-22T20:18:49.578Z,100081.91
2018-09-22T20:21:54.408Z,100103.91
2018-09-22T20:24:59.915Z,100115.81
2018-09-22T20:28:04.493Z,100106.70
2018-09-22T20:31:09.575Z,100095.69
2018-09-22T20:34:15.213Z,100088.03
2018-09-22T20:37:19.911Z,100102.73
2018-09-22T20:40:24.582Z,100102.71
2018-09-22T20:43:29.336Z,100100.00
2018-09-22T20:46:34.068Z,100094.04
2018-09-22T20:49:38.518Z,100091.28
2018-09-22T20:52:43.113Z,100095.89
2018-09-22T20:55:47.678Z,100095.75
2018-09-22T20:58:52.305Z,100080.82
2018-09-22T21:01:56.834Z,100077.77
2018-09-22T21:05:01.435Z,100087.31
2018-09-22T21:08:05.978Z,100083.88
2018-09-22T21:11:10.510Z,100074.27
2018-09-22T21:14:15.018Z,100079.97
2018-09-22T21:17:20.189Z,100084.66
2018-09-22T21:20:24.669Z,100078.05
2018-09-22T21:23:29.120Z,100084.66
2018-09-22T21:26:33.666Z,100088.03
2018-09-22T21:29:38.352Z,100071.00
2018-09-22T21:32:42.814Z,100074.61
2018-09-22T21:35:47.315Z,100074.61
2018-09-22T21:38:51.766Z,100083.36
2018-09-22T21:41:56.249Z,100077.31
2018-09-22T21:45:00.688Z,100080.49
2018-09-22T21:48:05.175Z,100078.82
2018-09-22T21:51:09.748Z,100080.02
2018-09-22T21:54:14.225Z,100074.03
2018-09-22T21:57:18.705Z,100085.20
2018-09-22T22:00:23.436Z,100076.79
2018-09-22T22:03:27.919Z,100081.32
2018-09-22T22:06:32.470Z,100087.95
2018-09-22T22:09:37.026Z,100080.49
2018-09-22T22:12:41.572Z,100084.89
2018-09-22T22:15:46.161Z,100078.52
2018-09-22T22:18:50.651Z,100069.74
2018-09-22T22:21:55.170Z,100070.23
2018-09-22T22:24:59.860Z,100073.91
2018-09-22T22:28:04.563Z,100072.47
2018-09-22T22:31:09.133Z,100064.09
2018-09-22T22:34:13.688Z,100059.74
2018-09-22T22:37:18.178Z,100060.92
2018-09-22T22:40:22.741Z,100050.81
2018-09-22T22:43:27.493Z,100044.16
2018-09-22T22:46:32.115Z,100043.92
2018-09-22T22:49:36.652Z,100041.64
2018-09-22T22:52:41.170Z,100052.53
2018-09-22T22:55:45.611Z,100048.66
2018-09-22T22:58:50.126Z,100040.87
2018-09-22T23:01:54.773Z,100038.37
2018-09-22T23:04:59.235Z,100044.61
2018-09-22T23:08:04.109Z,100039.85
2018-09-22T23:11:08.691Z,100035.25
2018-09-22T23:14:13.168Z,100031.32
2018-09-22T23:17:17.684Z,100040.30
2018-09-22T23:20:22.252Z,100043.63
2018-09-22T23:23:26.898Z,100037.86
2018-09-22T23:26:31.425Z,100034.16
2018-09-22T23:29:35.917Z,100029.28
2018-09-22T23:32:40.459Z,100028.94
2018-09-22T23:35:44.982Z,100027.50
2018-09-22T23:38:49.446Z,100036.51
2018-09-22T23:41:53.964Z,100033.25
2018-09-22T23:44:58.544Z,100022.80
2018-09-22T23:48:03.015Z,100018.22
2018-09-22T23:51:07.837Z,100019.01
2018-09-22T23:54:12.461Z,100014.69
2018-09-22T23:57:16.928Z,100032.23
